sensor_id;sensor_type;location;lat;lon;timestamp;P1;durP1;ratioP1;P2;durP2;ratioP2
73585;SDS011;61865;50.232;18.614;2024-02-26T00:01:32;57.70;;;28.45;;
73585;SDS011;61865;50.232;18.614;2024-02-26T00:03:54;57.75;;;26.02;;
73585;SDS011;61865;50.232;18.614;2024-02-26T00:06:19;51.30;;;24.45;;
73585;SDS011;61865;50.232;18.614;2024-02-26T00:08:41;56.47;;;26.45;;
73585;SDS011;61865;50.232;18.614;2024-02-26T00:11:05;70.22;;;29.00;;
73585;SDS011;61865;50.232;18.614;2024-02-26T00:15:56;60.13;;;28.40;;
73585;SDS011;61865;50.232;18.614;2024-02-26T00:18:19;78.45;;;32.45;;
73585;SDS011;61865;50.232;18.614;2024-02-26T00:20:41;63.83;;;28.10;;
73585;SDS011;61865;50.232;18.614;2024-02-26T00:23:04;53.58;;;25.95;;
73585;SDS011;61865;50.232;18.614;2024-02-26T00:25:26;59.92;;;25.15;;
73585;SDS011;61865;50.232;18.614;2024-02-26T00:27:50;58.35;;;23.48;;
73585;SDS011;61865;50.232;18.614;2024-02-26T00:30:12;55.47;;;23.95;;
73585;SDS011;61865;50.232;18.614;2024-02-26T00:32:35;64.43;;;21.50;;
73585;SDS011;61865;50.232;18.614;2024-02-26T00:34:57;56.72;;;24.70;;
73585;SDS011;61865;50.232;18.614;2024-02-26T00:37:19;45.42;;;21.17;;
73585;SDS011;61865;50.232;18.614;2024-02-26T00:39:41;49.05;;;24.35;;
73585;SDS011;61865;50.232;18.614;2024-02-26T00:42:04;79.10;;;36.85;;
73585;SDS011;61865;50.232;18.614;2024-02-26T00:44:28;80.70;;;37.33;;
73585;SDS011;61865;50.232;18.614;2024-02-26T00:46:51;68.80;;;36.35;;
73585;SDS011;61865;50.232;18.614;2024-02-26T00:49:13;70.53;;;33.90;;
73585;SDS011;61865;50.232;18.614;2024-02-26T00:51:35;65.32;;;32.38;;
73585;SDS011;61865;50.232;18.614;2024-02-26T00:53:58;69.75;;;32.47;;
73585;SDS011;61865;50.232;18.614;2024-02-26T00:56:20;60.63;;;28.60;;
73585;SDS011;61865;50.232;18.614;2024-02-26T00:58:43;52.80;;;23.73;;
73585;SDS011;61865;50.232;18.614;2024-02-26T01:01:06;42.65;;;20.50;;
73585;SDS011;61865;50.232;18.614;2024-02-26T01:03:29;39.38;;;19.45;;
73585;SDS011;61865;50.232;18.614;2024-02-26T01:05:51;41.83;;;20.77;;
73585;SDS011;61865;50.232;18.614;2024-02-26T01:08:14;39.08;;;18.88;;
73585;SDS011;61865;50.232;18.614;2024-02-26T01:10:36;33.70;;;17.25;;
73585;SDS011;61865;50.232;18.614;2024-02-26T01:12:59;44.75;;;18.95;;
73585;SDS011;61865;50.232;18.614;2024-02-26T01:15:21;47.53;;;20.02;;
73585;SDS011;61865;50.232;18.614;2024-02-26T01:17:45;36.67;;;17.98;;
73585;SDS011;61865;50.232;18.614;2024-02-26T01:20:07;43.47;;;18.70;;
73585;SDS011;61865;50.232;18.614;2024-02-26T01:22:30;41.15;;;18.92;;
73585;SDS011;61865;50.232;18.614;2024-02-26T01:24:55;39.05;;;18.63;;
73585;SDS011;61865;50.232;18.614;2024-02-26T01:27:18;35.65;;;18.33;;
73585;SDS011;61865;50.232;18.614;2024-02-26T01:29:42;31.90;;;18.10;;
73585;SDS011;61865;50.232;18.614;2024-02-26T01:32:04;36.70;;;17.92;;
73585;SDS011;61865;50.232;18.614;2024-02-26T01:34:28;37.33;;;18.52;;
73585;SDS011;61865;50.232;18.614;2024-02-26T01:36:50;37.80;;;17.33;;
73585;SDS011;61865;50.232;18.614;2024-02-26T01:39:12;34.10;;;18.05;;
73585;SDS011;61865;50.232;18.614;2024-02-26T01:41:35;38.35;;;18.92;;
73585;SDS011;61865;50.232;18.614;2024-02-26T01:43:57;33.00;;;16.77;;
73585;SDS011;61865;50.232;18.614;2024-02-26T01:46:19;34.03;;;18.50;;
73585;SDS011;61865;50.232;18.614;2024-02-26T01:48:42;45.92;;;18.17;;
73585;SDS011;61865;50.232;18.614;2024-02-26T01:51:06;34.20;;;16.98;;
73585;SDS011;61865;50.232;18.614;2024-02-26T01:53:29;35.15;;;15.98;;
73585;SDS011;61865;50.232;18.614;2024-02-26T01:55:51;32.45;;;16.88;;
73585;SDS011;61865;50.232;18.614;2024-02-26T01:58:13;36.92;;;17.63;;
73585;SDS011;61865;50.232;18.614;2024-02-26T02:00:36;31.33;;;17.27;;
73585;SDS011;61865;50.232;18.614;2024-02-26T02:02:59;32.35;;;16.75;;
73585;SDS011;61865;50.232;18.614;2024-02-26T02:05:22;27.60;;;15.82;;
73585;SDS011;61865;50.232;18.614;2024-02-26T02:07:46;35.45;;;16.35;;
73585;SDS011;61865;50.232;18.614;2024-02-26T02:10:09;30.90;;;14.63;;
73585;SDS011;61865;50.232;18.614;2024-02-26T02:12:32;27.85;;;15.05;;
73585;SDS011;61865;50.232;18.614;2024-02-26T02:14:54;34.00;;;18.33;;
73585;SDS011;61865;50.232;18.614;2024-02-26T02:17:16;40.35;;;16.70;;
73585;SDS011;61865;50.232;18.614;2024-02-26T02:19:39;35.38;;;18.05;;
73585;SDS011;61865;50.232;18.614;2024-02-26T02:22:02;33.85;;;16.92;;
73585;SDS011;61865;50.232;18.614;2024-02-26T02:24:24;34.75;;;18.38;;
73585;SDS011;61865;50.232;18.614;2024-02-26T02:26:47;38.08;;;17.70;;
73585;SDS011;61865;50.232;18.614;2024-02-26T02:29:09;38.38;;;17.20;;
73585;SDS011;61865;50.232;18.614;2024-02-26T02:31:32;37.25;;;18.50;;
73585;SDS011;61865;50.232;18.614;2024-02-26T02:33:54;29.25;;;17.65;;
73585;SDS011;61865;50.232;18.614;2024-02-26T02:36:17;33.75;;;16.25;;
73585;SDS011;61865;50.232;18.614;2024-02-26T02:38:49;27.55;;;15.55;;
73585;SDS011;61865;50.232;18.614;2024-02-26T02:41:11;33.88;;;17.02;;
73585;SDS011;61865;50.232;18.614;2024-02-26T02:43:34;31.00;;;15.82;;
73585;SDS011;61865;50.232;18.614;2024-02-26T02:45:56;34.60;;;16.98;;
73585;SDS011;61865;50.232;18.614;2024-02-26T02:48:19;35.17;;;17.77;;
73585;SDS011;61865;50.232;18.614;2024-02-26T02:50:41;32.08;;;17.80;;
73585;SDS011;61865;50.232;18.614;2024-02-26T02:53:03;34.63;;;17.08;;
73585;SDS011;61865;50.232;18.614;2024-02-26T02:55:27;35.35;;;17.15;;
73585;SDS011;61865;50.232;18.614;2024-02-26T02:57:50;34.35;;;16.08;;
73585;SDS011;61865;50.232;18.614;2024-02-26T03:00:12;29.70;;;14.02;;
73585;SDS011;61865;50.232;18.614;2024-02-26T03:02:35;28.45;;;14.27;;
73585;SDS011;61865;50.232;18.614;2024-02-26T03:04:57;26.33;;;14.23;;
73585;SDS011;61865;50.232;18.614;2024-02-26T03:07:19;26.92;;;13.48;;
73585;SDS011;61865;50.232;18.614;2024-02-26T03:09:42;30.40;;;15.88;;
73585;SDS011;61865;50.232;18.614;2024-02-26T03:12:05;29.60;;;14.27;;
73585;SDS011;61865;50.232;18.614;2024-02-26T03:14:28;30.90;;;15.13;;
73585;SDS011;61865;50.232;18.614;2024-02-26T03:16:52;25.83;;;13.48;;
73585;SDS011;61865;50.232;18.614;2024-02-26T03:19:15;27.45;;;14.77;;
73585;SDS011;61865;50.232;18.614;2024-02-26T03:21:37;25.05;;;13.30;;
73585;SDS011;61865;50.232;18.614;2024-02-26T03:23:59;25.90;;;13.43;;
73585;SDS011;61865;50.232;18.614;2024-02-26T03:26:22;30.92;;;14.38;;
73585;SDS011;61865;50.232;18.614;2024-02-26T03:28:45;21.67;;;12.60;;
73585;SDS011;61865;50.232;18.614;2024-02-26T03:31:08;22.90;;;12.88;;
73585;SDS011;61865;50.232;18.614;2024-02-26T03:33:30;26.42;;;12.20;;
73585;SDS011;61865;50.232;18.614;2024-02-26T03:35:53;27.33;;;12.35;;
73585;SDS011;61865;50.232;18.614;2024-02-26T03:38:15;25.85;;;11.82;;
73585;SDS011;61865;50.232;18.614;2024-02-26T03:40:37;21.63;;;11.30;;
73585;SDS011;61865;50.232;18.614;2024-02-26T03:43:00;18.77;;;11.10;;
73585;SDS011;61865;50.232;18.614;2024-02-26T03:45:24;18.85;;;11.02;;
73585;SDS011;61865;50.232;18.614;2024-02-26T03:47:47;17.45;;;10.55;;
73585;SDS011;61865;50.232;18.614;2024-02-26T03:50:09;24.02;;;11.85;;
73585;SDS011;61865;50.232;18.614;2024-02-26T03:52:32;17.20;;;10.40;;
73585;SDS011;61865;50.232;18.614;2024-02-26T03:54:57;22.05;;;10.38;;
73585;SDS011;61865;50.232;18.614;2024-02-26T03:57:19;20.60;;;10.48;;
73585;SDS011;61865;50.232;18.614;2024-02-26T03:59:42;16.50;;;11.52;;
73585;SDS011;61865;50.232;18.614;2024-02-26T04:02:05;21.55;;;10.90;;
73585;SDS011;61865;50.232;18.614;2024-02-26T04:04:29;19.15;;;12.10;;
73585;SDS011;61865;50.232;18.614;2024-02-26T04:06:54;20.10;;;12.23;;
73585;SDS011;61865;50.232;18.614;2024-02-26T04:09:17;22.05;;;12.35;;
73585;SDS011;61865;50.232;18.614;2024-02-26T04:11:39;23.98;;;12.07;;
73585;SDS011;61865;50.232;18.614;2024-02-26T04:14:03;23.48;;;12.60;;
73585;SDS011;61865;50.232;18.614;2024-02-26T04:16:26;19.45;;;11.63;;
73585;SDS011;61865;50.232;18.614;2024-02-26T04:18:49;23.83;;;13.75;;
73585;SDS011;61865;50.232;18.614;2024-02-26T04:21:13;25.42;;;13.88;;
73585;SDS011;61865;50.232;18.614;2024-02-26T04:23:35;22.27;;;12.57;;
73585;SDS011;61865;50.232;18.614;2024-02-26T04:25:58;50.33;;;21.15;;
73585;SDS011;61865;50.232;18.614;2024-02-26T04:28:20;43.08;;;18.83;;
73585;SDS011;61865;50.232;18.614;2024-02-26T04:30:45;73.43;;;26.77;;
73585;SDS011;61865;50.232;18.614;2024-02-26T04:33:08;41.63;;;19.67;;
73585;SDS011;61865;50.232;18.614;2024-02-26T04:35:31;38.35;;;17.83;;
73585;SDS011;61865;50.232;18.614;2024-02-26T04:37:55;30.85;;;15.07;;
73585;SDS011;61865;50.232;18.614;2024-02-26T04:40:18;32.95;;;17.17;;
73585;SDS011;61865;50.232;18.614;2024-02-26T04:42:40;28.17;;;16.52;;
73585;SDS011;61865;50.232;18.614;2024-02-26T04:45:02;33.92;;;19.65;;
73585;SDS011;61865;50.232;18.614;2024-02-26T04:47:25;33.55;;;17.70;;
73585;SDS011;61865;50.232;18.614;2024-02-26T04:49:47;30.20;;;17.67;;
73585;SDS011;61865;50.232;18.614;2024-02-26T04:52:13;35.08;;;18.80;;
73585;SDS011;61865;50.232;18.614;2024-02-26T04:54:35;36.03;;;18.35;;
73585;SDS011;61865;50.232;18.614;2024-02-26T04:56:57;39.05;;;19.13;;
73585;SDS011;61865;50.232;18.614;2024-02-26T04:59:20;43.33;;;24.90;;
73585;SDS011;61865;50.232;18.614;2024-02-26T05:01:42;50.95;;;28.58;;
73585;SDS011;61865;50.232;18.614;2024-02-26T05:04:04;45.75;;;25.85;;
73585;SDS011;61865;50.232;18.614;2024-02-26T05:06:27;35.13;;;20.38;;
73585;SDS011;61865;50.232;18.614;2024-02-26T05:08:50;39.72;;;20.17;;
73585;SDS011;61865;50.232;18.614;2024-02-26T05:11:13;51.13;;;23.48;;
73585;SDS011;61865;50.232;18.614;2024-02-26T05:13:35;39.72;;;22.02;;
73585;SDS011;61865;50.232;18.614;2024-02-26T05:15:57;39.25;;;22.27;;
73585;SDS011;61865;50.232;18.614;2024-02-26T05:18:20;39.20;;;19.25;;
73585;SDS011;61865;50.232;18.614;2024-02-26T05:20:43;34.53;;;19.95;;
73585;SDS011;61865;50.232;18.614;2024-02-26T05:23:06;33.45;;;17.48;;
73585;SDS011;61865;50.232;18.614;2024-02-26T05:25:29;34.75;;;17.13;;
73585;SDS011;61865;50.232;18.614;2024-02-26T05:27:52;39.55;;;16.67;;
73585;SDS011;61865;50.232;18.614;2024-02-26T05:30:14;33.28;;;18.10;;
73585;SDS011;61865;50.232;18.614;2024-02-26T05:32:37;31.77;;;17.73;;
73585;SDS011;61865;50.232;18.614;2024-02-26T05:34:59;36.88;;;17.02;;
73585;SDS011;61865;50.232;18.614;2024-02-26T05:37:23;32.33;;;16.90;;
73585;SDS011;61865;50.232;18.614;2024-02-26T05:39:45;35.53;;;20.00;;
73585;SDS011;61865;50.232;18.614;2024-02-26T05:42:09;64.90;;;32.75;;
73585;SDS011;61865;50.232;18.614;2024-02-26T05:44:31;60.45;;;31.25;;
73585;SDS011;61865;50.232;18.614;2024-02-26T05:46:53;62.17;;;34.20;;
73585;SDS011;61865;50.232;18.614;2024-02-26T05:49:16;44.72;;;25.10;;
73585;SDS011;61865;50.232;18.614;2024-02-26T05:51:38;47.00;;;28.77;;
73585;SDS011;61865;50.232;18.614;2024-02-26T05:54:00;56.78;;;29.67;;
73585;SDS011;61865;50.232;18.614;2024-02-26T05:56:23;43.65;;;23.95;;
73585;SDS011;61865;50.232;18.614;2024-02-26T05:58:46;56.72;;;24.95;;
73585;SDS011;61865;50.232;18.614;2024-02-26T06:01:09;45.25;;;21.23;;
73585;SDS011;61865;50.232;18.614;2024-02-26T06:03:31;47.95;;;21.77;;
73585;SDS011;61865;50.232;18.614;2024-02-26T06:05:54;33.85;;;17.77;;
73585;SDS011;61865;50.232;18.614;2024-02-26T06:08:16;33.22;;;19.05;;
73585;SDS011;61865;50.232;18.614;2024-02-26T06:10:39;36.30;;;20.10;;
73585;SDS011;61865;50.232;18.614;2024-02-26T06:13:04;39.10;;;20.17;;
73585;SDS011;61865;50.232;18.614;2024-02-26T06:15:28;32.97;;;18.70;;
73585;SDS011;61865;50.232;18.614;2024-02-26T06:17:53;61.95;;;26.15;;
73585;SDS011;61865;50.232;18.614;2024-02-26T06:20:18;92.75;;;31.67;;
73585;SDS011;61865;50.232;18.614;2024-02-26T06:22:40;77.43;;;29.85;;
73585;SDS011;61865;50.232;18.614;2024-02-26T06:25:03;58.25;;;26.90;;
73585;SDS011;61865;50.232;18.614;2024-02-26T06:27:25;50.15;;;22.48;;
73585;SDS011;61865;50.232;18.614;2024-02-26T06:29:47;48.17;;;24.30;;
73585;SDS011;61865;50.232;18.614;2024-02-26T06:32:11;57.03;;;26.35;;
73585;SDS011;61865;50.232;18.614;2024-02-26T06:34:33;49.35;;;24.75;;
73585;SDS011;61865;50.232;18.614;2024-02-26T06:36:56;47.65;;;24.58;;
73585;SDS011;61865;50.232;18.614;2024-02-26T06:39:18;47.40;;;23.60;;
73585;SDS011;61865;50.232;18.614;2024-02-26T06:41:40;46.33;;;23.70;;
73585;SDS011;61865;50.232;18.614;2024-02-26T06:44:03;36.75;;;23.33;;
73585;SDS011;61865;50.232;18.614;2024-02-26T06:46:25;45.63;;;23.08;;
73585;SDS011;61865;50.232;18.614;2024-02-26T06:48:52;40.58;;;22.17;;
73585;SDS011;61865;50.232;18.614;2024-02-26T06:51:14;40.97;;;23.25;;
73585;SDS011;61865;50.232;18.614;2024-02-26T06:53:36;41.35;;;21.83;;
73585;SDS011;61865;50.232;18.614;2024-02-26T06:55:59;41.03;;;23.13;;
73585;SDS011;61865;50.232;18.614;2024-02-26T06:58:21;42.80;;;23.63;;
73585;SDS011;61865;50.232;18.614;2024-02-26T07:00:43;43.03;;;24.08;;
73585;SDS011;61865;50.232;18.614;2024-02-26T07:03:06;48.60;;;26.73;;
73585;SDS011;61865;50.232;18.614;2024-02-26T07:05:30;46.17;;;24.02;;
73585;SDS011;61865;50.232;18.614;2024-02-26T07:07:52;43.38;;;23.38;;
73585;SDS011;61865;50.232;18.614;2024-02-26T07:10:14;57.22;;;26.23;;
73585;SDS011;61865;50.232;18.614;2024-02-26T07:12:37;97.43;;;32.83;;
73585;SDS011;61865;50.232;18.614;2024-02-26T07:14:59;99.15;;;33.75;;
73585;SDS011;61865;50.232;18.614;2024-02-26T07:17:25;65.90;;;29.08;;
73585;SDS011;61865;50.232;18.614;2024-02-26T07:19:47;117.50;;;33.92;;
73585;SDS011;61865;50.232;18.614;2024-02-26T07:22:11;122.25;;;36.47;;
73585;SDS011;61865;50.232;18.614;2024-02-26T07:24:34;120.35;;;37.28;;
73585;SDS011;61865;50.232;18.614;2024-02-26T07:26:56;77.25;;;28.75;;
73585;SDS011;61865;50.232;18.614;2024-02-26T07:29:18;101.22;;;32.97;;
73585;SDS011;61865;50.232;18.614;2024-02-26T07:31:40;118.65;;;34.63;;
73585;SDS011;61865;50.232;18.614;2024-02-26T07:34:03;75.78;;;28.85;;
73585;SDS011;61865;50.232;18.614;2024-02-26T07:36:25;110.55;;;35.13;;
73585;SDS011;61865;50.232;18.614;2024-02-26T07:38:49;72.40;;;29.80;;
73585;SDS011;61865;50.232;18.614;2024-02-26T07:41:14;116.13;;;34.95;;
73585;SDS011;61865;50.232;18.614;2024-02-26T07:43:36;63.38;;;29.40;;
73585;SDS011;61865;50.232;18.614;2024-02-26T07:45:58;55.15;;;25.35;;
73585;SDS011;61865;50.232;18.614;2024-02-26T07:48:21;44.65;;;23.42;;
73585;SDS011;61865;50.232;18.614;2024-02-26T07:50:43;70.40;;;23.90;;
73585;SDS011;61865;50.232;18.614;2024-02-26T07:53:05;103.50;;;29.63;;
73585;SDS011;61865;50.232;18.614;2024-02-26T07:55:29;79.72;;;27.27;;
73585;SDS011;61865;50.232;18.614;2024-02-26T07:57:51;54.28;;;20.55;;
73585;SDS011;61865;50.232;18.614;2024-02-26T08:00:14;131.50;;;35.00;;
73585;SDS011;61865;50.232;18.614;2024-02-26T08:02:37;75.25;;;23.92;;
73585;SDS011;61865;50.232;18.614;2024-02-26T08:04:59;69.93;;;23.65;;
73585;SDS011;61865;50.232;18.614;2024-02-26T08:07:25;71.45;;;23.88;;
73585;SDS011;61865;50.232;18.614;2024-02-26T08:09:48;61.85;;;22.67;;
73585;SDS011;61865;50.232;18.614;2024-02-26T08:12:12;49.22;;;19.67;;
73585;SDS011;61865;50.232;18.614;2024-02-26T08:14:34;54.75;;;20.77;;
73585;SDS011;61865;50.232;18.614;2024-02-26T08:16:56;52.05;;;20.27;;
73585;SDS011;61865;50.232;18.614;2024-02-26T08:19:19;58.20;;;22.38;;
73585;SDS011;61865;50.232;18.614;2024-02-26T08:21:41;28.85;;;15.85;;
73585;SDS011;61865;50.232;18.614;2024-02-26T08:24:04;26.67;;;13.00;;
73585;SDS011;61865;50.232;18.614;2024-02-26T08:26:26;29.67;;;13.75;;
73585;SDS011;61865;50.232;18.614;2024-02-26T08:28:50;66.32;;;21.30;;
73585;SDS011;61865;50.232;18.614;2024-02-26T08:31:12;46.22;;;17.75;;
73585;SDS011;61865;50.232;18.614;2024-02-26T08:33:35;50.75;;;16.88;;
73585;SDS011;61865;50.232;18.614;2024-02-26T08:35:57;28.83;;;13.00;;
73585;SDS011;61865;50.232;18.614;2024-02-26T08:38:19;25.70;;;11.93;;
73585;SDS011;61865;50.232;18.614;2024-02-26T08:40:42;21.52;;;11.88;;
73585;SDS011;61865;50.232;18.614;2024-02-26T08:43:04;27.02;;;11.90;;
73585;SDS011;61865;50.232;18.614;2024-02-26T08:45:28;22.50;;;12.13;;
73585;SDS011;61865;50.232;18.614;2024-02-26T08:47:50;33.05;;;14.15;;
73585;SDS011;61865;50.232;18.614;2024-02-26T08:50:13;27.73;;;12.45;;
73585;SDS011;61865;50.232;18.614;2024-02-26T08:52:35;20.73;;;11.88;;
73585;SDS011;61865;50.232;18.614;2024-02-26T08:54:58;38.03;;;14.70;;
73585;SDS011;61865;50.232;18.614;2024-02-26T08:57:20;33.90;;;13.48;;
73585;SDS011;61865;50.232;18.614;2024-02-26T08:59:42;35.92;;;14.45;;
73585;SDS011;61865;50.232;18.614;2024-02-26T09:02:07;25.77;;;12.18;;
73585;SDS011;61865;50.232;18.614;2024-02-26T09:04:29;21.70;;;11.23;;
73585;SDS011;61865;50.232;18.614;2024-02-26T09:06:54;23.05;;;10.60;;
73585;SDS011;61865;50.232;18.614;2024-02-26T09:09:19;20.00;;;11.20;;
73585;SDS011;61865;50.232;18.614;2024-02-26T09:11:42;22.73;;;10.38;;
73585;SDS011;61865;50.232;18.614;2024-02-26T09:14:06;19.17;;;10.82;;
73585;SDS011;61865;50.232;18.614;2024-02-26T09:16:28;23.45;;;9.85;;
73585;SDS011;61865;50.232;18.614;2024-02-26T09:18:54;22.30;;;9.82;;
73585;SDS011;61865;50.232;18.614;2024-02-26T09:21:17;21.17;;;11.25;;
73585;SDS011;61865;50.232;18.614;2024-02-26T09:23:43;17.42;;;9.50;;
73585;SDS011;61865;50.232;18.614;2024-02-26T09:26:05;17.48;;;8.43;;
73585;SDS011;61865;50.232;18.614;2024-02-26T09:28:29;14.82;;;6.97;;
73585;SDS011;61865;50.232;18.614;2024-02-26T09:30:57;14.60;;;6.38;;
73585;SDS011;61865;50.232;18.614;2024-02-26T09:33:19;13.20;;;7.13;;
73585;SDS011;61865;50.232;18.614;2024-02-26T09:35:43;13.15;;;6.40;;
73585;SDS011;61865;50.232;18.614;2024-02-26T09:38:06;13.23;;;5.82;;
73585;SDS011;61865;50.232;18.614;2024-02-26T09:40:28;14.60;;;6.85;;
73585;SDS011;61865;50.232;18.614;2024-02-26T09:42:51;10.27;;;5.28;;
73585;SDS011;61865;50.232;18.614;2024-02-26T09:45:17;12.75;;;5.65;;
73585;SDS011;61865;50.232;18.614;2024-02-26T09:47:40;10.65;;;5.43;;
73585;SDS011;61865;50.232;18.614;2024-02-26T09:50:03;12.98;;;5.53;;
73585;SDS011;61865;50.232;18.614;2024-02-26T09:52:30;9.05;;;4.68;;
73585;SDS011;61865;50.232;18.614;2024-02-26T09:54:53;4.10;;;2.60;;
73585;SDS011;61865;50.232;18.614;2024-02-26T09:57:15;5.75;;;2.67;;
73585;SDS011;61865;50.232;18.614;2024-02-26T09:59:39;8.48;;;2.88;;
73585;SDS011;61865;50.232;18.614;2024-02-26T10:02:01;12.15;;;5.50;;
73585;SDS011;61865;50.232;18.614;2024-02-26T10:04:25;11.18;;;5.78;;
73585;SDS011;61865;50.232;18.614;2024-02-26T10:06:48;7.40;;;3.65;;
73585;SDS011;61865;50.232;18.614;2024-02-26T10:09:11;13.13;;;4.93;;
73585;SDS011;61865;50.232;18.614;2024-02-26T10:11:36;21.30;;;8.00;;
73585;SDS011;61865;50.232;18.614;2024-02-26T10:13:59;21.20;;;8.23;;
73585;SDS011;61865;50.232;18.614;2024-02-26T10:16:21;8.30;;;4.82;;
73585;SDS011;61865;50.232;18.614;2024-02-26T10:18:45;13.23;;;6.07;;
73585;SDS011;61865;50.232;18.614;2024-02-26T10:21:07;17.88;;;6.43;;
73585;SDS011;61865;50.232;18.614;2024-02-26T10:23:30;17.92;;;7.18;;
73585;SDS011;61865;50.232;18.614;2024-02-26T10:25:54;6.70;;;3.13;;
73585;SDS011;61865;50.232;18.614;2024-02-26T10:28:16;7.72;;;4.05;;
73585;SDS011;61865;50.232;18.614;2024-02-26T10:30:38;12.95;;;5.60;;
73585;SDS011;61865;50.232;18.614;2024-02-26T10:33:02;9.05;;;4.18;;
73585;SDS011;61865;50.232;18.614;2024-02-26T10:35:24;5.07;;;2.50;;
73585;SDS011;61865;50.232;18.614;2024-02-26T10:37:49;10.63;;;3.45;;
73585;SDS011;61865;50.232;18.614;2024-02-26T10:40:11;33.47;;;7.97;;
73585;SDS011;61865;50.232;18.614;2024-02-26T10:42:36;11.20;;;4.72;;
73585;SDS011;61865;50.232;18.614;2024-02-26T10:44:58;13.73;;;6.03;;
73585;SDS011;61865;50.232;18.614;2024-02-26T10:47:22;9.75;;;3.83;;
73585;SDS011;61865;50.232;18.614;2024-02-26T10:49:50;8.95;;;2.92;;
73585;SDS011;61865;50.232;18.614;2024-02-26T10:52:12;5.32;;;3.00;;
73585;SDS011;61865;50.232;18.614;2024-02-26T10:54:36;7.13;;;3.05;;
73585;SDS011;61865;50.232;18.614;2024-02-26T10:57:00;6.10;;;3.25;;
73585;SDS011;61865;50.232;18.614;2024-02-26T10:59:26;7.25;;;3.17;;
73585;SDS011;61865;50.232;18.614;2024-02-26T11:01:49;6.28;;;2.78;;
73585;SDS011;61865;50.232;18.614;2024-02-26T11:04:12;4.78;;;3.00;;
73585;SDS011;61865;50.232;18.614;2024-02-26T11:06:35;5.05;;;2.90;;
73585;SDS011;61865;50.232;18.614;2024-02-26T11:09:01;6.38;;;3.05;;
73585;SDS011;61865;50.232;18.614;2024-02-26T11:11:24;6.32;;;3.35;;
73585;SDS011;61865;50.232;18.614;2024-02-26T11:13:49;8.38;;;3.25;;
73585;SDS011;61865;50.232;18.614;2024-02-26T11:16:16;5.05;;;2.83;;
73585;SDS011;61865;50.232;18.614;2024-02-26T11:18:41;6.95;;;2.67;;
73585;SDS011;61865;50.232;18.614;2024-02-26T11:21:06;6.88;;;3.45;;
73585;SDS011;61865;50.232;18.614;2024-02-26T11:23:29;5.95;;;3.03;;
73585;SDS011;61865;50.232;18.614;2024-02-26T11:25:55;6.85;;;3.25;;
73585;SDS011;61865;50.232;18.614;2024-02-26T11:28:19;6.10;;;3.40;;
73585;SDS011;61865;50.232;18.614;2024-02-26T11:30:43;5.65;;;3.22;;
73585;SDS011;61865;50.232;18.614;2024-02-26T11:33:08;3.85;;;2.60;;
73585;SDS011;61865;50.232;18.614;2024-02-26T11:35:32;4.90;;;2.92;;
73585;SDS011;61865;50.232;18.614;2024-02-26T11:37:55;5.65;;;3.22;;
73585;SDS011;61865;50.232;18.614;2024-02-26T11:42:47;3.72;;;2.33;;
73585;SDS011;61865;50.232;18.614;2024-02-26T11:47:55;4.00;;;2.33;;
73585;SDS011;61865;50.232;18.614;2024-02-26T11:50:34;4.13;;;2.35;;
73585;SDS011;61865;50.232;18.614;2024-02-26T11:55:34;6.30;;;3.22;;
73585;SDS011;61865;50.232;18.614;2024-02-26T11:57:56;6.50;;;3.20;;
73585;SDS011;61865;50.232;18.614;2024-02-26T12:00:19;6.43;;;3.03;;
73585;SDS011;61865;50.232;18.614;2024-02-26T12:02:44;6.10;;;3.50;;
73585;SDS011;61865;50.232;18.614;2024-02-26T12:05:07;7.30;;;3.10;;
73585;SDS011;61865;50.232;18.614;2024-02-26T12:07:31;5.60;;;3.13;;
73585;SDS011;61865;50.232;18.614;2024-02-26T12:09:53;8.10;;;3.00;;
73585;SDS011;61865;50.232;18.614;2024-02-26T12:12:35;6.63;;;2.67;;
73585;SDS011;61865;50.232;18.614;2024-02-26T12:14:58;4.88;;;2.90;;
73585;SDS011;61865;50.232;18.614;2024-02-26T12:17:21;5.85;;;2.88;;
73585;SDS011;61865;50.232;18.614;2024-02-26T12:19:43;5.22;;;2.85;;
73585;SDS011;61865;50.232;18.614;2024-02-26T12:22:06;5.10;;;2.90;;
73585;SDS011;61865;50.232;18.614;2024-02-26T12:24:30;5.28;;;2.90;;
73585;SDS011;61865;50.232;18.614;2024-02-26T12:26:52;6.22;;;3.08;;
73585;SDS011;61865;50.232;18.614;2024-02-26T12:29:15;6.75;;;3.20;;
73585;SDS011;61865;50.232;18.614;2024-02-26T12:31:37;5.20;;;2.97;;
73585;SDS011;61865;50.232;18.614;2024-02-26T12:34:01;5.80;;;3.10;;
73585;SDS011;61865;50.232;18.614;2024-02-26T12:36:23;6.18;;;3.38;;
73585;SDS011;61865;50.232;18.614;2024-02-26T12:38:46;5.30;;;3.30;;
73585;SDS011;61865;50.232;18.614;2024-02-26T12:41:09;4.22;;;2.75;;
73585;SDS011;61865;50.232;18.614;2024-02-26T12:43:31;5.72;;;3.15;;
73585;SDS011;61865;50.232;18.614;2024-02-26T12:45:54;5.10;;;2.50;;
73585;SDS011;61865;50.232;18.614;2024-02-26T12:48:16;5.22;;;3.05;;
73585;SDS011;61865;50.232;18.614;2024-02-26T12:50:39;5.43;;;2.72;;
73585;SDS011;61865;50.232;18.614;2024-02-26T12:53:01;8.95;;;3.55;;
73585;SDS011;61865;50.232;18.614;2024-02-26T12:55:23;5.32;;;3.38;;
73585;SDS011;61865;50.232;18.614;2024-02-26T12:57:47;4.82;;;3.10;;
73585;SDS011;61865;50.232;18.614;2024-02-26T13:00:12;6.35;;;3.70;;
73585;SDS011;61865;50.232;18.614;2024-02-26T13:02:36;5.82;;;3.17;;
73585;SDS011;61865;50.232;18.614;2024-02-26T13:04:58;6.43;;;3.63;;
73585;SDS011;61865;50.232;18.614;2024-02-26T13:07:21;6.80;;;3.30;;
73585;SDS011;61865;50.232;18.614;2024-02-26T13:09:43;6.53;;;3.55;;
73585;SDS011;61865;50.232;18.614;2024-02-26T13:12:08;5.70;;;3.20;;
73585;SDS011;61865;50.232;18.614;2024-02-26T13:14:32;5.45;;;3.28;;
73585;SDS011;61865;50.232;18.614;2024-02-26T13:16:55;5.25;;;3.17;;
73585;SDS011;61865;50.232;18.614;2024-02-26T13:19:17;5.82;;;3.28;;
73585;SDS011;61865;50.232;18.614;2024-02-26T13:21:39;7.35;;;3.70;;
73585;SDS011;61865;50.232;18.614;2024-02-26T13:24:02;5.47;;;2.95;;
73585;SDS011;61865;50.232;18.614;2024-02-26T13:26:24;6.22;;;3.92;;
73585;SDS011;61865;50.232;18.614;2024-02-26T13:28:47;5.15;;;3.50;;
73585;SDS011;61865;50.232;18.614;2024-02-26T13:31:10;6.63;;;3.47;;
73585;SDS011;61865;50.232;18.614;2024-02-26T13:33:33;8.35;;;3.60;;
73585;SDS011;61865;50.232;18.614;2024-02-26T13:35:56;7.72;;;3.75;;
73585;SDS011;61865;50.232;18.614;2024-02-26T13:38:18;7.13;;;3.72;;
73585;SDS011;61865;50.232;18.614;2024-02-26T13:40:40;7.20;;;3.83;;
73585;SDS011;61865;50.232;18.614;2024-02-26T13:43:03;4.93;;;3.40;;
73585;SDS011;61865;50.232;18.614;2024-02-26T13:45:25;6.38;;;3.40;;
73585;SDS011;61865;50.232;18.614;2024-02-26T13:47:49;9.57;;;4.32;;
73585;SDS011;61865;50.232;18.614;2024-02-26T13:50:11;5.57;;;3.50;;
73585;SDS011;61865;50.232;18.614;2024-02-26T13:52:33;6.45;;;3.75;;
73585;SDS011;61865;50.232;18.614;2024-02-26T13:54:56;4.78;;;3.22;;
73585;SDS011;61865;50.232;18.614;2024-02-26T13:57:19;6.57;;;3.78;;
73585;SDS011;61865;50.232;18.614;2024-02-26T13:59:42;9.10;;;4.25;;
73585;SDS011;61865;50.232;18.614;2024-02-26T14:02:04;5.75;;;3.78;;